createdAt,value
2019-02-20T00:02:01.892Z,88.50
2019-02-20T00:04:31.290Z,88.70
2019-02-20T00:07:00.666Z,88.50
2019-02-20T00:09:30.070Z,88.10
2019-02-20T00:11:59.420Z,88.10
2019-02-20T00:14:28.798Z,88.30
2019-02-20T00:16:58.430Z,88.20
2019-02-20T00:19:28.176Z,88.10
2019-02-20T00:21:57.798Z,88.10
2019-02-20T00:24:27.176Z,88.00
2019-02-20T00:26:56.544Z,87.80
2019-02-20T00:29:25.927Z,88.40
2019-02-20T00:31:55.315Z,87.70
2019-02-20T00:34:24.686Z,87.90
2019-02-20T00:36:54.127Z,87.90
2019-02-20T00:39:23.631Z,87.90
2019-02-20T00:41:53.769Z,88.10
2019-02-20T00:44:28.466Z,88.50
2019-02-20T00:47:17.909Z,88.50
2019-02-20T00:49:47.299Z,88.40
2019-02-20T00:52:18.577Z,88.20
2019-02-20T00:54:47.954Z,88.10
2019-02-20T00:57:17.320Z,88.30
2019-02-20T00:59:46.705Z,88.90
2019-02-20T01:02:16.315Z,88.90
2019-02-20T01:04:45.697Z,89.10
2019-02-20T01:07:15.057Z,89.40
2019-02-20T01:09:44.428Z,89.40
2019-02-20T01:12:13.809Z,89.60
2019-02-20T01:14:43.197Z,89.40
2019-02-20T01:17:13.474Z,89.90
2019-02-20T01:19:43.201Z,89.90
2019-02-20T01:22:12.579Z,89.80
2019-02-20T01:24:41.957Z,89.70
2019-02-20T01:27:11.341Z,89.60
2019-02-20T01:29:41.132Z,89.70
2019-02-20T01:32:10.788Z,89.30
2019-02-20T01:34:40.225Z,89.10
2019-02-20T01:37:09.602Z,89.10
2019-02-20T01:39:38.971Z,89.30
2019-02-20T01:42:08.680Z,89.50
2019-02-20T01:44:38.382Z,90.20
2019-02-20T01:47:07.820Z,90.00
2019-02-20T01:49:37.205Z,90.10
2019-02-20T01:52:06.571Z,90.10
2019-02-20T01:54:35.947Z,90.30
2019-02-20T01:57:24.713Z,90.00
2019-02-20T01:59:54.311Z,90.50
2019-02-20T02:02:23.693Z,90.40
2019-02-20T02:04:53.070Z,90.00
2019-02-20T02:07:22.448Z,90.10
2019-02-20T02:09:52.413Z,90.50
2019-02-20T02:12:21.964Z,90.30
2019-02-20T02:14:51.347Z,90.30
2019-02-20T02:17:20.720Z,90.30
2019-02-20T02:19:50.093Z,90.30
2019-02-20T02:22:19.505Z,90.30
2019-02-20T02:24:48.873Z,90.10
2019-02-20T02:27:18.368Z,90.10
2019-02-20T02:29:47.695Z,90.10
2019-02-20T02:32:17.101Z,90.10
2019-02-20T02:34:46.880Z,90.10
2019-02-20T02:37:16.341Z,90.20
2019-02-20T02:39:45.707Z,90.30
2019-02-20T02:42:15.406Z,90.50
2019-02-20T02:44:44.784Z,90.40
2019-02-20T02:47:14.194Z,90.40
2019-02-20T02:49:43.570Z,90.30
2019-02-20T02:52:13.223Z,90.30
2019-02-20T02:54:42.587Z,90.30
2019-02-20T02:57:11.963Z,90.30
2019-02-20T02:59:41.368Z,90.20
2019-02-20T03:02:10.821Z,90.30
2019-02-20T03:04:40.186Z,90.30
2019-02-20T03:07:09.591Z,90.30
2019-02-20T03:09:38.962Z,90.40
2019-02-20T03:12:08.359Z,90.40
2019-02-20T03:14:37.715Z,90.40
2019-02-20T03:17:07.111Z,90.40
2019-02-20T03:19:36.484Z,90.50
2019-02-20T03:22:06.058Z,90.40
2019-02-20T03:24:35.425Z,90.40
2019-02-20T03:27:04.802Z,90.40
2019-02-20T03:29:34.173Z,90.40
2019-02-20T03:32:03.550Z,90.40
2019-02-20T03:34:33.277Z,90.40
2019-02-20T03:37:02.653Z,90.50
2019-02-20T03:39:32.326Z,90.60
2019-02-20T03:42:02.038Z,90.50
2019-02-20T03:44:31.671Z,90.80
2019-02-20T03:47:01.332Z,90.40
2019-02-20T03:49:30.702Z,90.30
2019-02-20T03:52:00.121Z,90.40
2019-02-20T03:54:29.462Z,90.40
2019-02-20T03:56:58.830Z,90.40
2019-02-20T03:59:28.636Z,90.30
2019-02-20T04:01:57.992Z,90.30
2019-02-20T04:04:27.369Z,90.20
2019-02-20T04:06:56.734Z,90.10
2019-02-20T04:09:26.394Z,90.00
2019-02-20T04:11:55.767Z,90.00
2019-02-20T04:14:25.178Z,90.00
2019-02-20T04:16:54.783Z,90.00
2019-02-20T04:19:24.394Z,90.00
2019-02-20T04:21:53.768Z,90.00
2019-02-20T04:24:23.143Z,90.00
2019-02-20T04:26:52.509Z,89.90
2019-02-20T04:29:21.912Z,90.00
2019-02-20T04:31:51.276Z,89.90
2019-02-20T04:34:20.641Z,89.90
2019-02-20T04:36:50.006Z,90.00
2019-02-20T04:39:19.385Z,90.00
2019-02-20T04:41:48.761Z,89.90
2019-02-20T04:44:18.149Z,90.00
2019-02-20T04:46:47.542Z,90.00
2019-02-20T04:49:17.166Z,90.00
2019-02-20T04:51:47.224Z,90.10
2019-02-20T04:54:17.198Z,90.10
2019-02-20T04:56:47.206Z,90.00
2019-02-20T04:59:17.273Z,90.10
2019-02-20T05:01:47.802Z,90.00
2019-02-20T05:04:17.188Z,90.00
2019-02-20T05:06:46.551Z,90.10
2019-02-20T05:09:16.238Z,90.10
2019-02-20T05:11:45.607Z,90.10
2019-02-20T05:14:15.003Z,90.20
2019-02-20T05:16:44.378Z,90.20
2019-02-20T05:19:13.774Z,90.40
2019-02-20T05:21:43.158Z,90.40
2019-02-20T05:24:12.545Z,90.40
2019-02-20T05:26:41.922Z,90.40
2019-02-20T05:29:11.297Z,90.30
2019-02-20T05:31:40.667Z,90.40
2019-02-20T05:34:10.038Z,90.40
2019-02-20T05:36:39.456Z,90.80
2019-02-20T05:39:09.082Z,90.40
2019-02-20T05:41:38.449Z,90.40
2019-02-20T05:44:07.818Z,90.30
2019-02-20T05:46:37.191Z,90.30
2019-02-20T05:49:06.573Z,90.30
2019-02-20T05:51:35.954Z,90.30
2019-02-20T05:54:05.344Z,90.30
2019-02-20T05:56:34.721Z,90.30
2019-02-20T05:59:04.107Z,90.30
2019-02-20T06:01:33.797Z,90.40
2019-02-20T06:04:03.426Z,90.60
2019-02-20T06:06:33.162Z,90.60
2019-02-20T06:09:02.625Z,90.90
2019-02-20T06:11:32.041Z,90.70
2019-02-20T06:14:01.408Z,90.60
2019-02-20T06:16:31.944Z,90.70
2019-02-20T06:19:01.326Z,90.60
2019-02-20T06:21:31.051Z,91.00
2019-02-20T06:24:00.425Z,90.80
2019-02-20T06:26:29.802Z,90.80
2019-02-20T06:28:59.180Z,90.80
2019-02-20T06:31:28.558Z,90.80
2019-02-20T06:33:57.931Z,90.70
2019-02-20T06:36:27.313Z,90.70
2019-02-20T06:38:56.967Z,90.70
2019-02-20T06:41:26.575Z,90.70
2019-02-20T06:43:55.953Z,90.70
2019-02-20T06:46:25.339Z,90.70
2019-02-20T06:48:54.708Z,90.60
2019-02-20T06:51:24.107Z,90.70
2019-02-20T06:53:53.825Z,90.60
2019-02-20T06:56:23.203Z,90.60
2019-02-20T06:58:52.885Z,90.70
2019-02-20T07:01:22.266Z,90.70
2019-02-20T07:03:51.664Z,90.80
2019-02-20T07:06:31.902Z,90.90
2019-02-20T07:09:56.260Z,91.00
2019-02-20T07:12:36.257Z,90.90
2019-02-20T07:15:34.824Z,91.00
2019-02-20T07:18:29.665Z,91.10
2019-02-20T07:21:06.212Z,91.30
2019-02-20T07:23:57.763Z,91.30
2019-02-20T07:27:01.348Z,91.40
2019-02-20T07:29:51.882Z,91.90
2019-02-20T07:32:21.283Z,91.60
2019-02-20T07:34:51.675Z,91.40
2019-02-20T07:37:21.041Z,91.30
2019-02-20T07:39:50.421Z,91.10
2019-02-20T07:42:20.123Z,91.00
2019-02-20T07:44:49.494Z,90.70
2019-02-20T07:47:18.865Z,90.30
2019-02-20T07:49:48.492Z,89.90
2019-02-20T07:52:17.865Z,89.20
2019-02-20T07:54:47.284Z,88.60
2019-02-20T07:57:16.666Z,88.10
2019-02-20T07:59:46.056Z,87.90
2019-02-20T08:02:22.160Z,87.80
2019-02-20T08:04:59.157Z,87.70
2019-02-20T08:07:28.876Z,87.70
2019-02-20T08:10:02.493Z,87.80
2019-02-20T08:12:34.573Z,88.10
2019-02-20T08:15:04.143Z,88.40
2019-02-20T08:17:36.857Z,89.00
2019-02-20T08:20:09.402Z,89.20
2019-02-20T08:22:40.999Z,89.40
2019-02-20T08:25:12.042Z,89.30
2019-02-20T08:27:47.040Z,89.00
2019-02-20T08:30:16.603Z,88.30
2019-02-20T08:32:47.961Z,87.20
2019-02-20T08:35:17.570Z,86.70
2019-02-20T08:37:47.203Z,86.30
2019-02-20T08:40:17.067Z,85.30
2019-02-20T08:42:46.543Z,83.30
2019-02-20T08:45:15.952Z,82.40
2019-02-20T08:47:45.333Z,82.00
2019-02-20T08:50:16.801Z,82.00
2019-02-20T08:52:46.031Z,81.90
2019-02-20T08:55:18.808Z,82.40
2019-02-20T08:57:47.744Z,82.30
2019-02-20T09:00:17.143Z,82.60
2019-02-20T09:02:46.555Z,82.80
2019-02-20T09:05:15.959Z,82.10
2019-02-20T09:07:45.357Z,82.20
2019-02-20T09:10:17.347Z,80.90
2019-02-20T09:12:48.570Z,80.90
2019-02-20T09:15:21.143Z,80.40
2019-02-20T09:17:50.640Z,79.50
2019-02-20T09:20:22.438Z,77.90
2019-02-20T09:22:53.001Z,77.30
2019-02-20T09:25:22.974Z,76.90
2019-02-20T09:27:52.811Z,75.80
2019-02-20T09:30:28.436Z,75.50
2019-02-20T09:32:56.781Z,75.60
2019-02-20T09:35:28.490Z,75.50
2019-02-20T09:38:07.220Z,75.70
2019-02-20T09:40:37.123Z,76.20
2019-02-20T09:43:06.871Z,76.70
2019-02-20T09:45:41.991Z,76.80
2019-02-20T09:48:10.401Z,77.10
2019-02-20T09:50:39.777Z,76.20
2019-02-20T09:53:09.164Z,75.80
2019-02-20T09:55:38.544Z,75.60
2019-02-20T09:58:07.939Z,74.80
2019-02-20T10:00:37.317Z,74.50
2019-02-20T10:03:06.706Z,74.60
2019-02-20T10:05:36.130Z,75.10
2019-02-20T10:08:05.512Z,75.10
2019-02-20T10:10:34.909Z,74.60
2019-02-20T10:13:04.477Z,74.40
2019-02-20T10:15:34.120Z,75.00
2019-02-20T10:18:03.493Z,75.10
2019-02-20T10:20:32.881Z,74.80
2019-02-20T10:23:02.330Z,73.40
2019-02-20T10:25:31.743Z,71.80
2019-02-20T10:28:01.395Z,71.70
2019-02-20T10:30:30.763Z,70.90
2019-02-20T10:33:01.783Z,70.20
2019-02-20T10:35:31.415Z,68.80
2019-02-20T10:38:01.036Z,69.90
2019-02-20T10:40:30.388Z,68.60
2019-02-20T10:42:59.795Z,68.80
2019-02-20T10:45:29.192Z,68.40
2019-02-20T10:47:58.586Z,67.10
2019-02-20T10:50:29.117Z,67.50
2019-02-20T10:52:58.796Z,67.40
2019-02-20T10:55:28.187Z,67.70
2019-02-20T10:57:57.553Z,68.60
2019-02-20T11:00:28.933Z,69.20
2019-02-20T11:02:58.530Z,69.50
2019-02-20T11:05:28.064Z,69.60
2019-02-20T11:07:57.653Z,70.00
2019-02-20T11:10:36.968Z,69.90
2019-02-20T11:13:06.370Z,70.20
2019-02-20T11:15:35.847Z,70.50
2019-02-20T11:18:05.240Z,70.80
2019-02-20T11:20:34.625Z,70.90
2019-02-20T11:23:04.052Z,71.10
2019-02-20T11:25:33.509Z,71.10
2019-02-20T11:28:02.996Z,71.80
2019-02-20T11:30:32.375Z,72.00
2019-02-20T11:33:03.473Z,71.40
2019-02-20T11:35:32.972Z,71.00
2019-02-20T11:38:03.490Z,70.80
2019-02-20T11:40:33.100Z,70.80
2019-02-20T11:43:02.528Z,70.50
2019-02-20T11:45:31.906Z,70.50
2019-02-20T11:48:01.297Z,70.00
2019-02-20T11:50:30.675Z,69.50
2019-02-20T11:53:00.059Z,69.20
2019-02-20T11:55:29.450Z,69.30
2019-02-20T11:58:01.007Z,69.40
2019-02-20T12:00:30.127Z,69.60
2019-02-20T12:02:59.495Z,69.00
2019-02-20T12:05:28.871Z,68.80
2019-02-20T12:07:58.270Z,69.80
2019-02-20T12:10:27.735Z,69.10
2019-02-20T12:12:57.154Z,68.80
2019-02-20T12:15:26.540Z,69.00
2019-02-20T12:18:05.920Z,69.70
2019-02-20T12:20:35.342Z,70.20
2019-02-20T12:23:04.938Z,71.20
2019-02-20T12:25:34.326Z,70.40
2019-02-20T12:28:03.784Z,70.40
2019-02-20T12:30:33.196Z,70.80
2019-02-20T12:33:03.292Z,70.60
2019-02-20T12:35:32.698Z,70.60
2019-02-20T12:38:02.597Z,70.50
2019-02-20T12:40:31.987Z,70.80
2019-02-20T12:43:01.373Z,70.30
2019-02-20T12:45:31.258Z,70.30
2019-02-20T12:48:00.613Z,70.30
2019-02-20T12:50:30.002Z,70.80
2019-02-20T12:52:59.400Z,70.50
2019-02-20T12:55:28.777Z,70.30
2019-02-20T12:57:58.478Z,70.60
2019-02-20T13:00:27.864Z,71.00
2019-02-20T13:02:57.934Z,70.90
2019-02-20T13:05:28.966Z,70.90
2019-02-20T13:08:01.150Z,70.60
2019-02-20T13:10:30.965Z,70.30
2019-02-20T13:13:00.775Z,69.80
2019-02-20T13:15:30.740Z,71.30
2019-02-20T13:18:06.141Z,71.00
2019-02-20T13:20:35.602Z,71.30
2019-02-20T13:23:06.286Z,71.80
2019-02-20T13:25:35.713Z,71.60
2019-02-20T13:28:06.982Z,71.50
2019-02-20T13:30:36.399Z,71.80
2019-02-20T13:33:08.488Z,71.30
2019-02-20T13:35:39.464Z,71.40
2019-02-20T13:38:08.930Z,71.60
2019-02-20T13:40:38.779Z,71.80
2019-02-20T13:43:08.263Z,71.80
2019-02-20T13:45:40.566Z,72.40
2019-02-20T13:48:10.445Z,72.60
2019-02-20T13:50:39.941Z,72.20
2019-02-20T13:53:09.435Z,72.80
2019-02-20T13:55:39.152Z,72.50
2019-02-20T13:58:08.655Z,72.00
2019-02-20T14:00:38.349Z,72.20
2019-02-20T14:03:08.192Z,72.30
2019-02-20T14:05:38.085Z,72.20
2019-02-20T14:08:07.558Z,72.00
2019-02-20T14:10:37.116Z,71.80
2019-02-20T14:13:08.269Z,71.80
2019-02-20T14:15:37.806Z,71.00
2019-02-20T14:18:08.927Z,71.50
2019-02-20T14:20:39.818Z,71.50
2019-02-20T14:23:09.322Z,71.40
2019-02-20T14:25:39.200Z,71.90
2019-02-20T14:28:11.155Z,72.60
2019-02-20T14:30:42.193Z,72.10
2019-02-20T14:33:12.659Z,72.10
2019-02-20T14:35:43.684Z,72.40
2019-02-20T14:38:13.171Z,72.30
2019-02-20T14:40:42.681Z,72.10
2019-02-20T14:43:12.446Z,72.20
2019-02-20T14:45:42.221Z,71.00
2019-02-20T14:48:11.730Z,70.90
2019-02-20T14:50:41.189Z,70.50
2019-02-20T14:53:10.835Z,70.50
2019-02-20T14:55:40.677Z,70.10
2019-02-20T14:58:10.256Z,71.10
2019-02-20T15:00:39.671Z,70.40
2019-02-20T15:03:09.269Z,70.00
2019-02-20T15:05:39.710Z,70.00
2019-02-20T15:08:09.457Z,70.00
2019-02-20T15:10:39.204Z,70.60
2019-02-20T15:13:08.764Z,70.40
2019-02-20T15:15:38.844Z,70.20
2019-02-20T15:18:08.249Z,70.10
2019-02-20T15:20:38.270Z,69.80
2019-02-20T15:23:12.085Z,69.20
2019-02-20T15:25:41.544Z,68.80
2019-02-20T15:28:11.016Z,68.90
2019-02-20T15:30:41.187Z,68.20
2019-02-20T15:33:11.014Z,67.80
2019-02-20T15:35:40.690Z,68.00
2019-02-20T15:38:10.268Z,68.60
2019-02-20T15:40:39.743Z,68.70
2019-02-20T15:43:12.278Z,68.90
2019-02-20T15:45:41.971Z,68.80
2019-02-20T15:48:11.484Z,69.10
2019-02-20T15:50:40.899Z,68.70
2019-02-20T15:53:10.790Z,68.00
2019-02-20T15:55:40.369Z,68.10
2019-02-20T15:58:10.937Z,67.30
2019-02-20T16:00:41.484Z,67.50
2019-02-20T16:03:11.007Z,68.10
2019-02-20T16:05:42.249Z,67.90
2019-02-20T16:08:11.622Z,67.80
2019-02-20T16:10:41.049Z,68.00
2019-02-20T16:13:10.842Z,68.30
2019-02-20T16:15:40.854Z,68.40
2019-02-20T16:18:17.340Z,68.60
2019-02-20T16:20:46.755Z,68.80
2019-02-20T16:23:16.240Z,68.90
2019-02-20T16:25:46.089Z,69.10
2019-02-20T16:28:17.294Z,69.00
2019-02-20T16:30:46.783Z,69.30
2019-02-20T16:33:17.893Z,69.60
2019-02-20T16:35:49.001Z,69.70
2019-02-20T16:38:18.659Z,70.00
2019-02-20T16:40:59.830Z,70.10
2019-02-20T16:43:29.361Z,70.30
2019-02-20T16:46:00.737Z,70.70
2019-02-20T16:48:30.865Z,71.00
2019-02-20T16:51:00.527Z,71.10
2019-02-20T16:53:30.187Z,71.40
2019-02-20T16:56:00.356Z,71.70
2019-02-20T16:58:29.992Z,71.80
2019-02-20T17:00:59.680Z,72.10
2019-02-20T17:03:29.353Z,72.30
2019-02-20T17:06:01.028Z,72.60
2019-02-20T17:08:30.606Z,72.60
2019-02-20T17:11:00.382Z,72.70
2019-02-20T17:13:30.085Z,73.00
2019-02-20T17:16:02.976Z,73.10
2019-02-20T17:18:33.942Z,73.30
2019-02-20T17:21:03.696Z,73.40
2019-02-20T17:23:34.659Z,73.60
2019-02-20T17:26:04.421Z,73.60
2019-02-20T17:28:34.147Z,73.80
2019-02-20T17:31:04.041Z,74.00
2019-02-20T17:33:33.738Z,74.10
2019-02-20T17:36:04.764Z,74.20
2019-02-20T17:38:37.584Z,74.40
2019-02-20T17:41:07.567Z,74.50
2019-02-20T17:43:36.996Z,74.50
2019-02-20T17:46:06.704Z,74.60
2019-02-20T17:48:36.135Z,74.70
2019-02-20T17:51:06.793Z,74.80
2019-02-20T17:53:36.366Z,74.80
2019-02-20T17:56:05.824Z,75.00
2019-02-20T17:58:35.598Z,74.90
2019-02-20T18:01:08.841Z,75.10
2019-02-20T18:03:38.518Z,75.20
2019-02-20T18:06:08.266Z,75.30
2019-02-20T18:08:37.771Z,75.40
2019-02-20T18:11:07.588Z,75.50
2019-02-20T18:13:37.101Z,75.60
2019-02-20T18:16:06.501Z,75.80
2019-02-20T18:18:35.966Z,75.90
2019-02-20T18:21:10.941Z,76.10
2019-02-20T18:23:46.068Z,76.20
2019-02-20T18:26:15.465Z,76.30
2019-02-20T18:28:44.953Z,76.40
2019-02-20T18:31:14.408Z,76.70
2019-02-20T18:33:49.601Z,76.80
2019-02-20T18:36:26.500Z,77.10
2019-02-20T18:39:20.022Z,77.10
2019-02-20T18:41:51.762Z,77.10
2019-02-20T18:44:21.472Z,77.30
2019-02-20T18:46:56.690Z,77.50
2019-02-20T18:49:30.993Z,77.80
2019-02-20T18:52:02.175Z,77.90
2019-02-20T18:54:35.906Z,77.90
2019-02-20T18:57:06.537Z,78.10
2019-02-20T18:59:43.078Z,78.40
2019-02-20T19:02:18.591Z,78.80
2019-02-20T19:04:56.536Z,79.20
2019-02-20T19:07:25.244Z,79.50
2019-02-20T19:10:08.980Z,79.90
2019-02-20T19:12:50.046Z,80.10
2019-02-20T19:15:44.860Z,80.60
2019-02-20T19:18:44.690Z,80.60
2019-02-20T19:21:36.680Z,80.70
2019-02-20T19:24:28.348Z,80.60
2019-02-20T19:27:19.756Z,80.60
2019-02-20T19:30:35.043Z,80.70
2019-02-20T19:33:11.709Z,80.80
2019-02-20T19:36:18.129Z,80.90
2019-02-20T19:42:09.472Z,81.20
2019-02-20T19:45:17.075Z,81.30
2019-02-20T19:48:22.812Z,81.50
2019-02-20T19:51:51.596Z,81.80
2019-02-20T19:54:12.505Z,82.10
2019-02-20T19:57:08.555Z,82.50
2019-02-20T20:00:15.429Z,82.50
2019-02-20T20:03:23.632Z,82.60
2019-02-20T20:06:00.728Z,82.70
2019-02-20T20:08:34.793Z,83.70
2019-02-20T20:11:29.979Z,83.40
2019-02-20T20:14:38.689Z,83.80
2019-02-20T20:17:36.272Z,84.10
2019-02-20T20:20:16.078Z,84.10
2019-02-20T20:23:07.983Z,84.50
2019-02-20T20:26:17.921Z,84.60
2019-02-20T20:29:20.670Z,84.70
2019-02-20T20:32:00.588Z,84.70
2019-02-20T20:35:09.294Z,84.80
2019-02-20T20:37:54.405Z,84.70
2019-02-20T20:40:54.997Z,84.50
2019-02-20T20:43:40.627Z,84.60
2019-02-20T20:46:35.617Z,84.80
2019-02-20T20:49:17.873Z,84.90
2019-02-20T20:52:26.704Z,84.70
2019-02-20T20:55:01.228Z,84.70
2019-02-20T20:57:42.979Z,84.60
2019-02-20T21:00:39.458Z,84.70
2019-02-20T21:03:13.679Z,84.80
2019-02-20T21:05:56.891Z,84.80
2019-02-20T21:08:39.685Z,84.80
2019-02-20T21:11:45.423Z,84.90
2019-02-20T21:14:22.059Z,84.90
2019-02-20T21:17:38.813Z,85.10
2019-02-20T21:20:44.300Z,85.40
2019-02-20T21:23:41.843Z,85.90
2019-02-20T21:26:26.714Z,86.40
2019-02-20T21:29:28.065Z,86.80
2019-02-20T21:32:17.119Z,86.70
2019-02-20T21:35:09.526Z,87.00
2019-02-20T21:37:58.471Z,86.80
2019-02-20T21:41:02.253Z,86.70
2019-02-20T21:43:59.225Z,86.50
2019-02-20T21:46:56.633Z,86.70
2019-02-20T21:50:03.760Z,86.90
2019-02-20T21:52:46.471Z,86.80
2019-02-20T21:55:44.527Z,87.00
2019-02-20T21:58:56.830Z,86.90
2019-02-20T22:01:51.956Z,87.10
2019-02-20T22:04:45.501Z,87.10
2019-02-20T22:07:47.953Z,87.30
2019-02-20T22:10:30.622Z,87.20
2019-02-20T22:13:30.445Z,87.00
2019-02-20T22:16:27.973Z,87.10
2019-02-20T22:19:16.512Z,87.00
2019-02-20T22:22:14.856Z,86.90
2019-02-20T22:25:18.128Z,87.00
2019-02-20T22:28:01.249Z,87.10
2019-02-20T22:31:10.101Z,87.10
2019-02-20T22:34:20.054Z,87.20
2019-02-20T22:37:17.950Z,87.20
2019-02-20T22:40:09.583Z,87.40
2019-02-20T22:43:01.470Z,87.50
2019-02-20T22:45:44.017Z,87.80
2019-02-20T22:48:20.942Z,87.80
2019-02-20T22:51:35.885Z,87.90
2019-02-20T22:54:37.491Z,88.10
2019-02-20T22:57:48.121Z,88.10
2019-02-20T23:01:04.483Z,88.00
2019-02-20T23:03:44.135Z,88.20
2019-02-20T23:06:37.294Z,88.30
2019-02-20T23:09:40.870Z,88.50
2019-02-20T23:12:23.320Z,88.40
2019-02-20T23:15:00.926Z,88.20
2019-02-20T23:17:30.389Z,88.40
2019-02-20T23:19:59.787Z,88.30
2019-02-20T23:22:29.167Z,88.40
2019-02-20T23:24:58.792Z,88.40
2019-02-20T23:27:28.177Z,88.60
2019-02-20T23:29:57.572Z,88.70
2019-02-20T23:32:26.956Z,88.80
2019-02-20T23:34:56.436Z,88.80
2019-02-20T23:37:26.064Z,88.70
2019-02-20T23:39:55.759Z,88.70
2019-02-20T23:42:25.147Z,88.50
2019-02-20T23:44:54.518Z,88.40
2019-02-20T23:47:23.907Z,88.40
2019-02-20T23:49:53.346Z,88.50
2019-02-20T23:52:22.744Z,88.20
2019-02-20T23:54:52.113Z,88.10
2019-02-20T23:57:21.502Z,87.90
2019-02-20T23:59:50.886Z,87.90
